createdAt,value
2022-11-05T04:37:57.173Z,8.52
2022-11-05T04:40:25.284Z,8.12
2022-11-05T04:42:54.170Z,8.16
2022-11-05T04:45:23.437Z,8.76
2022-11-05T04:47:51.194Z,8.54
2022-11-05T04:50:18.518Z,8.61
2022-11-05T04:52:45.819Z,8.59
2022-11-05T04:55:13.588Z,8.39
2022-11-05T04:57:40.914Z,8.35
2022-11-05T05:00:10.306Z,8.73
2022-11-05T05:02:37.854Z,8.31
2022-11-05T05:05:05.619Z,8.39
2022-11-05T05:07:33.984Z,8.31
2022-11-05T05:10:02.339Z,8.35
2022-11-05T05:12:29.733Z,7.91
2022-11-05T05:14:57.271Z,8.52
2022-11-05T05:17:25.275Z,8.38
2022-11-05T05:20:11.277Z,8.63
2022-11-05T05:22:38.836Z,8.45
2022-11-05T05:25:06.256Z,8.31
2022-11-05T05:27:33.554Z,8.14
2022-11-05T05:30:01.191Z,8.20
2022-11-05T05:32:28.574Z,8.09
2022-11-05T05:34:55.941Z,8.12
2022-11-05T05:37:23.667Z,8.11
2022-11-05T05:39:51.078Z,8.40
2022-11-05T05:42:18.400Z,8.60
2022-11-05T05:44:45.973Z,7.99
2022-11-05T05:47:14.067Z,8.46
2022-11-05T05:49:41.390Z,8.74
2022-11-05T05:52:09.173Z,8.28
2022-11-05T05:54:42.304Z,8.36
2022-11-05T05:57:10.547Z,8.30
2022-11-05T05:59:37.835Z,8.65
2022-11-05T06:02:05.234Z,8.09
2022-11-05T06:04:33.114Z,7.83
2022-11-05T06:07:00.418Z,8.00
2022-11-05T06:09:27.915Z,8.30
2022-11-05T06:11:55.502Z,8.27
2022-11-05T06:14:22.805Z,8.31
2022-11-05T06:16:50.110Z,8.17
2022-11-05T06:19:17.664Z,7.98
2022-11-05T06:21:45.093Z,8.16
2022-11-05T06:24:12.444Z,8.20
2022-11-05T06:26:42.901Z,8.62
2022-11-05T06:29:10.652Z,8.16
2022-11-05T06:31:38.109Z,8.16
2022-11-05T06:34:05.689Z,8.14
2022-11-05T06:36:33.516Z,8.10
2022-11-05T06:39:00.860Z,7.92
2022-11-05T06:41:28.423Z,7.86
2022-11-05T06:43:55.721Z,8.26
2022-11-05T06:46:23.023Z,7.97
2022-11-05T06:48:51.107Z,8.05
2022-11-05T06:51:18.667Z,8.00
2022-11-05T06:53:46.021Z,8.60
2022-11-05T06:56:13.596Z,8.68
2022-11-05T06:58:41.006Z,8.55
2022-11-05T07:01:09.859Z,8.55
2022-11-05T07:03:38.227Z,8.19
2022-11-05T07:06:06.710Z,8.82
2022-11-05T07:08:35.634Z,8.63
2022-11-05T07:11:04.007Z,8.22
2022-11-05T07:13:31.355Z,8.92
2022-11-05T07:15:58.671Z,8.90
2022-11-05T07:18:26.262Z,9.15
2022-11-05T07:20:53.618Z,8.79
2022-11-05T07:23:20.953Z,8.89
2022-11-05T07:25:48.502Z,9.20
2022-11-05T07:28:15.830Z,9.08
2022-11-05T07:30:43.250Z,9.20
2022-11-05T07:33:11.121Z,9.19
2022-11-05T07:35:38.602Z,9.03
2022-11-05T07:38:05.949Z,9.22
2022-11-05T07:40:33.522Z,9.16
2022-11-05T07:43:01.509Z,9.35
2022-11-05T07:45:30.770Z,9.03
2022-11-05T07:48:02.968Z,9.43
2022-11-05T07:50:33.640Z,8.97
2022-11-05T07:53:12.368Z,9.05
2022-11-05T07:55:43.878Z,9.10
2022-11-05T07:58:11.523Z,9.52
2022-11-05T08:00:39.159Z,9.77
2022-11-05T08:03:17.466Z,9.23
2022-11-05T08:05:47.364Z,9.38
2022-11-05T08:08:17.082Z,9.71
2022-11-05T08:10:44.595Z,9.85
2022-11-05T08:13:13.314Z,9.73
2022-11-05T08:15:42.254Z,10.05
2022-11-05T08:18:17.215Z,10.37
2022-11-05T08:20:45.187Z,10.37
2022-11-05T08:23:12.883Z,10.65
2022-11-05T08:25:41.046Z,10.02
2022-11-05T08:28:11.770Z,10.22
2022-11-05T08:30:39.149Z,10.77
2022-11-05T08:33:12.547Z,10.37
2022-11-05T08:35:40.998Z,10.56
2022-11-05T08:38:11.073Z,10.44
2022-11-05T08:40:38.390Z,10.53
2022-11-05T08:43:07.525Z,10.34
2022-11-05T08:45:38.272Z,9.79
2022-11-05T08:48:08.684Z,10.18
2022-11-05T08:50:37.356Z,9.90
2022-11-05T08:53:05.726Z,9.99
2022-11-05T08:55:33.317Z,9.48
2022-11-05T08:58:02.843Z,10.04
2022-11-05T09:00:32.551Z,10.23
2022-11-05T09:03:01.689Z,10.00
2022-11-05T09:05:29.702Z,9.86
2022-11-05T09:08:00.764Z,9.89
2022-11-05T09:10:29.203Z,9.56
2022-11-05T09:12:56.546Z,9.63
2022-11-05T09:15:24.678Z,9.98
2022-11-05T09:17:52.479Z,9.94
2022-11-05T09:20:19.799Z,10.22
2022-11-05T09:22:47.167Z,10.30
2022-11-05T09:25:15.956Z,9.92
2022-11-05T09:27:43.798Z,10.36
2022-11-05T09:30:12.494Z,10.35
2022-11-05T09:32:40.127Z,10.26
2022-11-05T09:35:08.263Z,10.05
2022-11-05T09:37:38.855Z,10.63
2022-11-05T09:40:06.992Z,10.63
2022-11-05T09:42:42.522Z,10.59
2022-11-05T09:45:15.118Z,10.67
2022-11-05T09:48:01.754Z,11.24
2022-11-05T09:50:33.014Z,10.90
2022-11-05T09:53:01.031Z,10.99
2022-11-05T09:55:33.948Z,10.76
2022-11-05T09:58:04.013Z,11.11
2022-11-05T10:00:32.564Z,10.49
2022-11-05T10:03:05.865Z,11.13
2022-11-05T10:05:34.341Z,11.53
2022-11-05T10:08:05.645Z,11.90
2022-11-05T10:10:45.502Z,12.28
2022-11-05T10:13:19.101Z,11.90
2022-11-05T10:16:15.268Z,12.31
2022-11-05T10:18:44.846Z,11.97
2022-11-05T10:21:17.441Z,12.40
2022-11-05T10:23:45.934Z,12.41
2022-11-05T10:26:26.736Z,12.23
2022-11-05T10:29:14.008Z,12.30
2022-11-05T10:31:43.271Z,12.70
2022-11-05T10:34:13.520Z,12.12
2022-11-05T10:36:40.916Z,11.99
2022-11-05T10:39:19.274Z,11.64
2022-11-05T10:42:31.589Z,11.96
2022-11-05T10:45:11.269Z,12.37
2022-11-05T10:47:45.154Z,11.07
2022-11-05T10:50:17.552Z,11.93
2022-11-05T10:53:15.558Z,11.98
2022-11-05T10:55:48.703Z,12.06
2022-11-05T10:58:20.291Z,11.56
2022-11-05T11:00:53.847Z,11.64
2022-11-05T11:03:33.086Z,11.92
2022-11-05T11:06:03.075Z,12.18
2022-11-05T11:08:30.983Z,11.59
2022-11-05T11:11:00.059Z,12.14
2022-11-05T11:13:49.278Z,12.11
2022-11-05T11:16:21.084Z,12.28
2022-11-05T11:18:57.063Z,12.21
2022-11-05T11:21:24.763Z,12.11
2022-11-05T11:24:04.800Z,12.44
2022-11-05T11:26:34.496Z,12.52
2022-11-05T11:29:06.497Z,12.34
2022-11-05T11:31:37.765Z,12.35
2022-11-05T11:34:26.925Z,12.56
2022-11-05T11:36:56.336Z,12.43
2022-11-05T11:39:30.460Z,12.72
2022-11-05T11:42:02.354Z,12.48
2022-11-05T11:44:33.119Z,12.10
2022-11-05T11:47:10.968Z,12.32
2022-11-05T11:49:41.437Z,12.05
2022-11-05T11:52:14.267Z,11.54
2022-11-05T11:54:42.341Z,12.16
2022-11-05T11:57:20.566Z,12.32
2022-11-05T12:00:07.899Z,12.02
2022-11-05T12:02:58.824Z,11.92
2022-11-05T12:05:38.541Z,12.57
2022-11-05T12:08:18.642Z,12.06
2022-11-05T12:11:16.409Z,11.95
2022-11-05T12:14:04.873Z,11.88
2022-11-05T12:16:51.823Z,12.17
2022-11-05T12:19:32.004Z,12.25
2022-11-05T12:22:38.246Z,12.64
2022-11-05T12:25:11.165Z,12.57
2022-11-05T12:28:01.906Z,12.89
2022-11-05T12:30:37.324Z,13.10
2022-11-05T12:33:26.288Z,12.93
2022-11-05T12:36:14.582Z,13.07
2022-11-05T12:39:19.674Z,12.91
2022-11-05T12:42:02.081Z,12.57
2022-11-05T12:44:58.166Z,13.11
2022-11-05T12:47:37.780Z,13.05
2022-11-05T12:50:22.813Z,12.16
2022-11-05T12:53:08.463Z,12.57
2022-11-05T12:55:47.142Z,12.98
2022-11-05T12:58:22.931Z,13.09
2022-11-05T13:01:05.305Z,13.07
2022-11-05T13:03:58.790Z,13.03
2022-11-05T13:06:32.877Z,13.25
2022-11-05T13:09:20.017Z,12.70
2022-11-05T13:11:52.847Z,13.01
2022-11-05T13:14:24.840Z,13.24
2022-11-05T13:17:00.876Z,12.97
2022-11-05T13:19:36.000Z,13.06
2022-11-05T13:22:27.498Z,13.08
2022-11-05T13:25:01.124Z,12.74
2022-11-05T13:27:28.671Z,13.11
2022-11-05T13:30:01.989Z,12.82
2022-11-05T13:32:33.254Z,12.33
2022-11-05T13:35:02.547Z,12.67
2022-11-05T13:37:52.720Z,12.47
2022-11-05T13:40:24.861Z,12.64
2022-11-05T13:43:15.118Z,12.30
2022-11-05T13:46:07.518Z,12.20
2022-11-05T13:49:00.244Z,12.48
2022-11-05T13:51:33.578Z,12.49
2022-11-05T13:54:45.579Z,12.63
2022-11-05T13:57:31.325Z,11.96
2022-11-05T14:00:25.462Z,12.24
2022-11-05T14:02:55.542Z,12.46
2022-11-05T14:05:25.656Z,12.49
2022-11-05T14:07:53.738Z,12.10
2022-11-05T14:10:36.380Z,11.67
2022-11-05T14:13:16.198Z,12.02
2022-11-05T14:15:58.647Z,11.76
2022-11-05T14:18:43.052Z,11.66
2022-11-05T14:21:32.339Z,11.66
2022-11-05T14:24:19.564Z,11.67
2022-11-05T14:27:02.437Z,12.23
2022-11-05T14:29:41.891Z,11.93
2022-11-05T14:32:21.165Z,12.46
2022-11-05T14:34:54.203Z,12.04
2022-11-05T14:37:21.529Z,11.97
2022-11-05T14:39:49.710Z,12.46
2022-11-05T14:42:28.797Z,12.76
2022-11-05T14:45:34.177Z,12.06
2022-11-05T14:48:04.592Z,12.40
2022-11-05T14:50:36.152Z,12.28
2022-11-05T14:53:28.724Z,12.39
2022-11-05T14:56:02.422Z,12.42
2022-11-05T14:58:32.370Z,12.34
2022-11-05T15:01:02.677Z,11.96
2022-11-05T15:03:31.921Z,12.23
2022-11-05T15:06:35.551Z,12.15
2022-11-05T15:09:27.626Z,11.77
2022-11-05T15:11:55.252Z,11.99
2022-11-05T15:14:51.205Z,11.34
2022-11-05T15:17:30.462Z,11.87
2022-11-05T15:20:09.660Z,11.73
2022-11-05T15:22:41.836Z,11.65
2022-11-05T15:25:47.771Z,11.86
2022-11-05T15:28:24.585Z,11.54
2022-11-05T15:31:13.939Z,11.40
2022-11-05T15:33:43.834Z,11.52
2022-11-05T15:36:25.789Z,11.31
2022-11-05T15:39:23.006Z,11.26
2022-11-05T15:41:41.932Z,11.68
2022-11-05T15:44:24.226Z,11.44
2022-11-05T15:47:13.755Z,11.39
2022-11-05T15:50:02.311Z,11.18
2022-11-05T15:52:42.111Z,11.60
2022-11-05T15:55:13.200Z,11.60
2022-11-05T15:57:50.879Z,11.32
2022-11-05T16:00:21.979Z,11.88
2022-11-05T16:02:56.023Z,11.85
2022-11-05T16:05:28.680Z,10.98
2022-11-05T16:07:59.530Z,10.91
2022-11-05T16:10:34.141Z,11.78
2022-11-05T16:13:40.030Z,10.97
2022-11-05T16:16:32.711Z,11.37
2022-11-05T16:19:00.941Z,11.22
2022-11-05T16:21:28.641Z,11.24
2022-11-05T16:23:58.631Z,11.08
2022-11-05T16:29:36.148Z,11.20
2022-11-05T16:32:06.685Z,10.70
2022-11-05T16:34:40.782Z,11.13
2022-11-05T16:37:16.112Z,11.25
2022-11-05T16:39:43.679Z,11.31
2022-11-05T16:42:23.591Z,11.80
2022-11-05T16:44:52.396Z,11.11
2022-11-05T16:47:21.015Z,10.70
2022-11-05T16:49:48.807Z,10.50
2022-11-05T16:52:16.958Z,10.84
2022-11-05T16:54:44.792Z,11.21
2022-11-05T16:57:26.472Z,11.26
2022-11-05T16:59:55.430Z,11.41
2022-11-05T17:02:23.361Z,11.16
2022-11-05T17:04:56.216Z,10.95
2022-11-05T17:07:24.345Z,11.58
2022-11-05T17:09:52.287Z,11.79
2022-11-05T17:12:19.983Z,11.96
2022-11-05T17:14:48.106Z,12.46
2022-11-05T17:17:15.910Z,11.81
2022-11-05T17:19:44.029Z,11.90
2022-11-05T17:22:12.202Z,11.10
2022-11-05T17:24:40.121Z,11.33
2022-11-05T17:27:08.018Z,10.89
2022-11-05T17:29:36.101Z,11.29
2022-11-05T17:32:06.066Z,11.02
2022-11-05T17:34:36.900Z,11.41
2022-11-05T17:37:04.987Z,11.21
2022-11-05T17:39:37.971Z,11.35
2022-11-05T17:42:06.196Z,11.17
2022-11-05T17:44:33.730Z,11.58
2022-11-05T17:47:01.364Z,11.47
2022-11-05T17:49:29.518Z,11.46
2022-11-05T17:51:58.557Z,11.23
2022-11-05T17:54:26.379Z,11.30
2022-11-05T17:56:54.428Z,11.40
2022-11-05T17:59:22.297Z,10.70
2022-11-05T18:01:50.462Z,10.43
2022-11-05T18:04:18.726Z,10.84
2022-11-05T18:06:46.477Z,10.86
2022-11-05T18:09:14.539Z,10.75
2022-11-05T18:11:43.170Z,10.73
2022-11-05T18:14:10.974Z,11.05
2022-11-05T18:16:38.534Z,11.21
2022-11-05T18:19:06.661Z,10.99
2022-11-05T18:21:34.582Z,11.13
2022-11-05T18:24:04.188Z,11.47
2022-11-05T18:26:32.432Z,11.25
2022-11-05T18:29:01.675Z,11.58
2022-11-05T18:31:29.406Z,11.75
2022-11-05T18:33:58.841Z,11.80
2022-11-05T18:36:29.973Z,11.20
2022-11-05T18:38:59.319Z,11.30
2022-11-05T18:41:27.733Z,11.72
2022-11-05T18:44:06.832Z,11.43
2022-11-05T18:49:22.935Z,11.73
2022-11-05T18:51:50.560Z,11.39
2022-11-05T18:54:18.469Z,11.58
2022-11-05T18:56:46.382Z,11.76
2022-11-05T19:02:05.099Z,11.61
2022-11-05T19:04:33.287Z,11.61
2022-11-05T19:07:04.757Z,11.01
2022-11-05T19:09:34.521Z,11.22
2022-11-05T19:12:06.392Z,11.62
2022-11-05T19:14:35.511Z,11.33
2022-11-05T19:17:03.642Z,11.00
2022-11-05T19:19:31.439Z,11.54
2022-11-05T19:21:59.692Z,11.21
2022-11-05T19:24:27.471Z,11.47
2022-11-05T19:26:55.269Z,11.45
2022-11-05T19:29:24.094Z,11.59
2022-11-05T19:31:51.938Z,11.33
2022-11-05T19:34:20.563Z,11.86
2022-11-05T19:36:48.568Z,11.58
2022-11-05T19:39:16.592Z,11.07
2022-11-05T19:41:44.466Z,11.42
2022-11-05T19:44:12.130Z,11.38
2022-11-05T19:46:39.838Z,11.38
2022-11-05T19:49:07.840Z,11.44
2022-11-05T19:51:36.237Z,11.07
2022-11-05T19:54:04.528Z,10.72
2022-11-05T19:56:34.120Z,11.05
2022-11-05T19:59:03.395Z,11.02
2022-11-05T20:01:31.846Z,10.82
2022-11-05T20:04:02.724Z,10.52
2022-11-05T20:06:36.106Z,10.35
2022-11-05T20:09:22.862Z,10.32
2022-11-05T20:11:54.903Z,10.63
2022-11-05T20:14:24.512Z,10.41
2022-11-05T20:16:52.189Z,10.35
2022-11-05T20:19:21.672Z,10.95
2022-11-05T20:21:49.933Z,10.66
2022-11-05T20:24:24.225Z,10.21
2022-11-05T20:26:56.831Z,10.37
2022-11-05T20:29:33.679Z,10.09
2022-11-05T20:32:04.060Z,10.10
2022-11-05T20:34:32.840Z,10.33
2022-11-05T20:37:01.135Z,10.45
2022-11-05T20:39:29.473Z,10.85
2022-11-05T20:41:57.226Z,10.92
2022-11-05T20:44:24.667Z,10.19
2022-11-05T20:46:52.649Z,10.64
2022-11-05T20:49:25.197Z,10.82
2022-11-05T20:51:54.721Z,10.87
2022-11-05T20:54:23.049Z,9.98
2022-11-05T20:56:51.042Z,10.20
2022-11-05T20:59:19.906Z,10.66
2022-11-05T21:01:47.900Z,10.29
2022-11-05T21:04:16.276Z,10.60
2022-11-05T21:06:44.316Z,10.39
2022-11-05T21:09:13.463Z,10.73
2022-11-05T21:12:00.410Z,10.65
2022-11-05T21:14:28.448Z,10.95
2022-11-05T21:16:56.158Z,11.07
2022-11-05T21:19:25.435Z,11.39
2022-11-05T21:21:56.046Z,10.76
2022-11-05T21:24:24.629Z,10.77
2022-11-05T21:26:52.653Z,10.27
2022-11-05T21:29:21.197Z,10.71
2022-11-05T21:31:48.925Z,10.63
2022-11-05T21:34:17.614Z,10.62
2022-11-05T21:36:45.772Z,10.49
2022-11-05T21:39:13.952Z,10.88
2022-11-05T21:41:43.013Z,10.86
2022-11-05T21:44:10.716Z,10.98
2022-11-05T21:46:38.080Z,10.83
2022-11-05T21:49:05.707Z,10.98
2022-11-05T21:51:52.518Z,10.87
2022-11-05T21:54:38.455Z,11.02
2022-11-05T21:57:30.665Z,11.28
2022-11-05T22:00:00.463Z,11.19
2022-11-05T22:02:31.171Z,10.73
2022-11-05T22:05:00.204Z,11.30
2022-11-05T22:07:30.907Z,11.31
2022-11-05T22:09:58.567Z,11.30
2022-11-05T22:12:26.243Z,11.11
2022-11-05T22:14:54.146Z,10.90
2022-11-05T22:17:21.953Z,11.08
2022-11-05T22:19:49.295Z,10.83
2022-11-05T22:22:16.967Z,11.10
2022-11-05T22:24:44.696Z,11.18
2022-11-05T22:27:15.235Z,11.04
2022-11-05T22:29:42.785Z,11.21
2022-11-05T22:32:11.088Z,11.03
2022-11-05T22:34:38.601Z,10.91
2022-11-05T22:37:06.049Z,11.36
2022-11-05T22:39:33.978Z,11.08
2022-11-05T22:42:07.061Z,11.49
2022-11-05T22:44:36.700Z,11.43
2022-11-05T22:47:04.181Z,10.69
2022-11-05T22:49:31.587Z,10.46
2022-11-05T22:51:59.329Z,10.77
2022-11-05T22:54:26.632Z,10.76
2022-11-05T22:56:53.999Z,10.85
2022-11-05T22:59:21.569Z,10.86
2022-11-05T23:01:49.476Z,11.05
2022-11-05T23:04:16.848Z,10.76
2022-11-05T23:07:02.878Z,10.24
2022-11-05T23:09:51.462Z,10.55
2022-11-05T23:12:26.123Z,10.60
2022-11-05T23:14:55.295Z,10.61
2022-11-05T23:17:41.726Z,10.47
2022-11-05T23:20:31.833Z,10.59
2022-11-05T23:23:18.381Z,10.53
2022-11-05T23:25:45.712Z,10.31
2022-11-05T23:28:14.209Z,10.03
2022-11-05T23:31:02.474Z,10.57
2022-11-05T23:33:33.396Z,10.62
2022-11-05T23:36:19.254Z,10.60
2022-11-05T23:38:47.108Z,10.09
2022-11-05T23:41:32.764Z,10.60
2022-11-05T23:44:18.767Z,11.01
2022-11-05T23:47:04.774Z,10.75
2022-11-05T23:49:32.502Z,10.56
2022-11-05T23:52:00.322Z,10.87
2022-11-05T23:54:27.671Z,10.60
2022-11-05T23:56:55.427Z,10.42
2022-11-05T23:59:22.884Z,10.74
